createdAt,value
2018-12-05T00:00:44.740Z,4.20
2018-12-05T00:03:18.578Z,4.20
2018-12-05T00:05:52.720Z,4.20
2018-12-05T00:08:30.664Z,4.20
2018-12-05T00:11:04.588Z,4.10
2018-12-05T00:13:38.442Z,4.10
2018-12-05T00:16:16.277Z,4.00
2018-12-05T00:18:50.437Z,4.00
2018-12-05T00:21:28.385Z,3.80
2018-12-05T00:24:01.653Z,3.70
2018-12-05T00:26:35.544Z,3.70
2018-12-05T00:29:09.520Z,3.80
2018-12-05T00:31:43.345Z,3.80
2018-12-05T00:34:17.360Z,3.90
2018-12-05T00:36:55.286Z,3.90
2018-12-05T00:39:29.400Z,4.00
2018-12-05T00:42:03.321Z,4.00
2018-12-05T00:44:37.291Z,4.10
2018-12-05T00:47:11.318Z,4.10
2018-12-05T00:49:45.352Z,4.10
2018-12-05T00:52:19.196Z,4.20
2018-12-05T00:54:53.347Z,4.20
2018-12-05T00:57:31.253Z,4.20
2018-12-05T01:00:07.739Z,4.20
2018-12-05T01:02:41.398Z,4.20
2018-12-05T01:05:15.419Z,4.20
2018-12-05T01:07:49.540Z,4.10
2018-12-05T01:10:23.580Z,4.10
2018-12-05T01:12:57.630Z,4.00
2018-12-05T01:15:31.625Z,4.00
2018-12-05T01:18:02.770Z,3.90
2018-12-05T01:20:36.560Z,3.90
2018-12-05T01:23:10.704Z,3.80
2018-12-05T01:25:44.716Z,3.80
2018-12-05T01:28:18.854Z,3.80
2018-12-05T01:30:56.684Z,3.70
2018-12-05T01:33:30.700Z,3.60
2018-12-05T01:36:04.856Z,3.60
2018-12-05T01:38:38.972Z,3.60
2018-12-05T01:41:13.041Z,3.50
2018-12-05T01:43:47.715Z,3.40
2018-12-05T01:46:20.964Z,3.40
2018-12-05T01:48:54.879Z,3.40
2018-12-05T01:51:28.919Z,3.30
2018-12-05T01:54:06.297Z,3.20
2018-12-05T01:56:40.171Z,3.10
2018-12-05T01:59:14.243Z,3.10
2018-12-05T02:01:48.348Z,3.10
2018-12-05T02:04:22.422Z,3.20
2018-12-05T02:06:56.334Z,3.20
2018-12-05T02:09:34.332Z,3.10
2018-12-05T02:12:08.346Z,3.10
2018-12-05T02:14:41.585Z,3.00
2018-12-05T02:17:15.418Z,3.10
2018-12-05T02:19:48.624Z,3.00
2018-12-05T02:22:22.476Z,3.00
2018-12-05T02:24:56.581Z,3.00
2018-12-05T02:27:30.517Z,2.90
2018-12-05T02:30:05.051Z,2.90
2018-12-05T02:32:38.460Z,2.80
2018-12-05T02:35:12.807Z,2.80
2018-12-05T02:37:46.726Z,2.70
2018-12-05T02:40:22.800Z,2.70
2018-12-05T02:42:56.985Z,2.60
2018-12-05T02:45:31.009Z,2.50
2018-12-05T02:48:12.166Z,2.50
2018-12-05T02:50:46.180Z,2.50
2018-12-05T02:53:20.242Z,2.50
2018-12-05T02:55:54.241Z,2.50
2018-12-05T02:58:28.357Z,2.40
2018-12-05T03:01:02.226Z,2.40
2018-12-05T03:03:35.505Z,2.50
2018-12-05T03:06:09.360Z,2.50
2018-12-05T03:08:43.407Z,2.60
2018-12-05T03:11:17.521Z,2.60
2018-12-05T03:13:51.453Z,2.60
2018-12-05T03:16:29.397Z,2.60
2018-12-05T03:19:03.447Z,2.60
2018-12-05T03:21:39.438Z,2.70
2018-12-05T03:24:12.694Z,2.70
2018-12-05T03:26:46.699Z,2.70
2018-12-05T03:29:24.619Z,2.60
2018-12-05T03:31:57.871Z,2.60
2018-12-05T03:34:31.918Z,2.70
2018-12-05T03:37:05.837Z,2.70
2018-12-05T03:39:39.907Z,2.70
2018-12-05T03:42:11.307Z,2.70
2018-12-05T03:44:45.084Z,2.70
2018-12-05T03:47:18.892Z,2.70
2018-12-05T03:49:54.096Z,2.70
2018-12-05T03:52:27.402Z,2.70
2018-12-05T03:55:00.640Z,2.80
2018-12-05T03:57:34.562Z,2.80
2018-12-05T04:05:17.427Z,2.80
2018-12-05T04:07:55.340Z,2.70
2018-12-05T04:10:29.464Z,2.80
2018-12-05T04:13:07.409Z,2.80
2018-12-05T04:15:40.701Z,2.80
2018-12-05T04:18:14.370Z,2.70
2018-12-05T04:20:52.119Z,2.70
2018-12-05T04:23:25.507Z,2.70
2018-12-05T04:25:59.532Z,2.80
2018-12-05T04:28:33.712Z,2.80
2018-12-05T04:31:07.571Z,2.80
2018-12-05T04:33:41.525Z,2.80
2018-12-05T04:36:15.452Z,2.80
2018-12-05T04:38:49.467Z,2.80
2018-12-05T04:41:23.600Z,2.90
2018-12-05T04:43:57.737Z,2.90
2018-12-05T04:46:31.757Z,2.90
2018-12-05T04:49:05.676Z,2.90
2018-12-05T04:51:39.603Z,2.90
2018-12-05T04:54:13.430Z,2.90
2018-12-05T04:56:51.248Z,2.80
2018-12-05T04:59:25.293Z,2.70
2018-12-05T05:02:03.260Z,2.70
2018-12-05T05:04:37.179Z,2.80
2018-12-05T05:07:11.489Z,2.80
2018-12-05T05:09:45.207Z,2.90
2018-12-05T05:12:19.140Z,2.80
2018-12-05T05:14:53.095Z,2.80
2018-12-05T05:17:27.130Z,2.80
2018-12-05T05:20:01.122Z,2.80
2018-12-05T05:22:35.121Z,2.80
2018-12-05T05:25:09.247Z,2.80
2018-12-05T05:27:45.991Z,2.80
2018-12-05T05:30:19.332Z,2.80
2018-12-05T05:32:53.323Z,2.80
2018-12-05T05:35:31.294Z,2.80
2018-12-05T05:38:05.398Z,2.70
2018-12-05T05:40:39.449Z,2.70
2018-12-05T05:43:17.335Z,2.70
2018-12-05T05:45:51.399Z,2.70
2018-12-05T05:48:25.216Z,2.70
2018-12-05T05:50:59.145Z,2.80
2018-12-05T05:53:36.989Z,2.80
2018-12-05T05:56:11.156Z,2.80
2018-12-05T05:58:45.129Z,2.80
2018-12-05T06:01:19.006Z,2.90
2018-12-05T06:03:53.090Z,2.90
2018-12-05T06:06:27.240Z,2.90
2018-12-05T06:09:01.197Z,3.00
2018-12-05T06:11:35.227Z,3.00
2018-12-05T06:14:09.141Z,3.10
2018-12-05T06:16:43.167Z,3.10
2018-12-05T06:19:17.262Z,3.10
2018-12-05T06:21:51.373Z,3.10
2018-12-05T06:24:25.333Z,3.10
2018-12-05T06:26:59.239Z,3.10
2018-12-05T06:29:33.249Z,3.10
2018-12-05T06:32:07.291Z,3.10
2018-12-05T06:34:41.407Z,3.10
2018-12-05T06:37:19.181Z,3.20
2018-12-05T06:39:52.385Z,3.20
2018-12-05T06:42:28.459Z,3.20
2018-12-05T06:45:01.689Z,3.20
2018-12-05T06:47:39.537Z,3.20
2018-12-05T06:50:17.505Z,3.20
2018-12-05T06:52:51.616Z,3.20
2018-12-05T06:55:25.560Z,3.30
2018-12-05T06:57:59.517Z,3.30
2018-12-05T07:00:37.353Z,3.30
2018-12-05T07:03:11.501Z,3.30
2018-12-05T07:05:45.466Z,3.30
2018-12-05T07:08:19.461Z,3.30
2018-12-05T07:10:52.813Z,3.30
2018-12-05T07:13:28.847Z,3.30
2018-12-05T07:16:06.825Z,3.30
2018-12-05T07:18:40.047Z,3.30
2018-12-05T07:21:14.110Z,3.40
2018-12-05T07:23:48.333Z,3.70
2018-12-05T07:26:25.919Z,3.70
2018-12-05T07:28:59.878Z,3.70
2018-12-05T07:31:33.880Z,3.70
2018-12-05T07:34:05.140Z,3.60
2018-12-05T07:36:39.104Z,3.70
2018-12-05T07:39:13.137Z,3.80
2018-12-05T07:41:47.285Z,3.80
2018-12-05T07:44:21.283Z,3.90
2018-12-05T07:46:55.435Z,4.00
2018-12-05T07:49:29.370Z,4.00
2018-12-05T07:52:07.134Z,4.00
2018-12-05T07:54:41.249Z,4.10
2018-12-05T07:57:14.480Z,4.00
2018-12-05T07:59:48.310Z,4.00
2018-12-05T08:02:22.308Z,4.00
2018-12-05T08:04:56.404Z,4.00
2018-12-05T08:07:30.447Z,4.00
2018-12-05T08:10:04.601Z,4.00
2018-12-05T08:12:38.513Z,4.20
2018-12-05T08:15:12.513Z,4.20
2018-12-05T08:17:46.643Z,4.20
2018-12-05T08:20:24.486Z,4.30
2018-12-05T08:22:58.624Z,4.30
2018-12-05T08:25:32.493Z,4.40
2018-12-05T08:28:10.411Z,4.50
2018-12-05T08:30:43.632Z,4.60
2018-12-05T08:33:17.475Z,4.80
2018-12-05T08:35:51.477Z,4.90
2018-12-05T08:38:25.927Z,5.00
2018-12-05T08:41:00.031Z,5.10
2018-12-05T08:43:34.250Z,5.20
2018-12-05T08:46:04.846Z,5.30
2018-12-05T08:48:38.614Z,5.40
2018-12-05T08:51:12.026Z,5.50
2018-12-05T08:53:46.023Z,5.50
2018-12-05T08:56:20.184Z,5.50
2018-12-05T08:58:54.036Z,5.50
2018-12-05T09:01:27.417Z,5.50
2018-12-05T09:04:05.385Z,5.50
2018-12-05T09:06:43.253Z,5.50
2018-12-05T09:09:16.605Z,5.50
2018-12-05T09:11:52.638Z,5.50
2018-12-05T09:14:28.880Z,5.60
2018-12-05T09:17:05.186Z,5.60
2018-12-05T09:19:38.496Z,5.70
2018-12-05T09:22:12.444Z,5.80
2018-12-05T09:24:50.405Z,6.00
2018-12-05T09:27:24.266Z,6.20
2018-12-05T09:29:58.233Z,6.60
2018-12-05T09:32:32.200Z,6.90
2018-12-05T09:35:05.638Z,7.10
2018-12-05T09:37:39.488Z,7.30
2018-12-05T09:40:13.615Z,7.40
2018-12-05T09:42:56.209Z,7.80
2018-12-05T09:45:30.358Z,8.30
2018-12-05T09:48:04.532Z,8.60
2018-12-05T09:50:38.572Z,8.70
2018-12-05T09:53:09.902Z,8.80
2018-12-05T09:55:40.932Z,8.90
2018-12-05T09:58:14.702Z,8.80
2018-12-05T10:00:47.935Z,8.70
2018-12-05T10:03:21.784Z,8.50
2018-12-05T10:05:55.715Z,8.40
2018-12-05T10:08:29.704Z,8.30
2018-12-05T10:11:03.730Z,8.20
2018-12-05T10:13:37.921Z,8.30
2018-12-05T10:16:12.056Z,8.40
2018-12-05T10:18:46.184Z,8.90
2018-12-05T10:21:20.322Z,9.40
2018-12-05T10:23:54.277Z,9.80
2018-12-05T10:26:27.508Z,10.20
2018-12-05T10:29:01.564Z,10.60
2018-12-05T10:31:44.030Z,10.70
2018-12-05T10:34:14.927Z,10.70
2018-12-05T10:36:49.166Z,10.60
2018-12-05T10:39:22.993Z,10.80
2018-12-05T10:41:56.949Z,10.90
2018-12-05T10:44:30.951Z,11.10
2018-12-05T10:47:05.023Z,11.80
2018-12-05T10:49:39.062Z,12.10
2018-12-05T10:52:13.277Z,12.60
2018-12-05T10:54:51.057Z,13.10
2018-12-05T10:57:25.220Z,13.40
2018-12-05T11:00:02.516Z,13.40
2018-12-05T11:02:41.856Z,13.20
2018-12-05T11:05:20.787Z,12.70
2018-12-05T11:08:01.379Z,12.30
2018-12-05T11:10:41.216Z,12.00
2018-12-05T11:13:19.953Z,11.90
2018-12-05T11:15:59.080Z,12.10
2018-12-05T11:18:37.933Z,12.30
2018-12-05T11:21:16.976Z,12.20
2018-12-05T11:24:00.077Z,12.20
2018-12-05T11:26:35.485Z,12.20
2018-12-05T11:29:08.720Z,12.30
2018-12-05T11:31:42.993Z,12.50
2018-12-05T11:34:16.419Z,12.90
2018-12-05T11:36:50.422Z,13.20
2018-12-05T11:39:23.674Z,13.10
2018-12-05T11:41:57.651Z,13.20
2018-12-05T11:44:31.760Z,13.20
2018-12-05T11:47:05.770Z,13.40
2018-12-05T11:49:39.864Z,13.50
2018-12-05T11:52:14.031Z,13.80
2018-12-05T11:54:51.980Z,14.00
2018-12-05T11:57:26.110Z,14.20
2018-12-05T12:00:00.277Z,14.00
2018-12-05T12:02:33.529Z,13.90
2018-12-05T12:05:06.837Z,13.90
2018-12-05T12:07:40.648Z,13.70
2018-12-05T12:10:14.865Z,13.40
2018-12-05T12:12:57.337Z,13.20
2018-12-05T12:15:30.837Z,13.40
2018-12-05T12:18:04.138Z,13.50
2018-12-05T12:20:37.884Z,13.50
2018-12-05T12:23:11.948Z,13.40
2018-12-05T12:25:45.880Z,13.40
2018-12-05T12:28:19.901Z,13.20
2018-12-05T12:30:54.025Z,12.90
2018-12-05T12:33:28.085Z,12.70
2018-12-05T12:36:01.921Z,12.50
2018-12-05T12:38:36.001Z,12.30
2018-12-05T12:41:09.941Z,12.20
2018-12-05T12:43:43.154Z,12.20
2018-12-05T12:46:19.261Z,12.10
2018-12-05T12:48:53.371Z,12.00
2018-12-05T12:51:27.437Z,12.00
2018-12-05T12:54:01.515Z,12.20
2018-12-05T12:56:39.569Z,12.40
2018-12-05T12:59:12.807Z,12.50
2018-12-05T13:01:46.963Z,12.80
2018-12-05T13:04:20.194Z,13.00
2018-12-05T13:06:53.520Z,13.20
2018-12-05T13:09:40.126Z,13.40
2018-12-05T13:12:15.617Z,13.40
2018-12-05T13:14:53.260Z,13.50
2018-12-05T13:17:29.256Z,13.60
2018-12-05T13:20:03.863Z,13.80
2018-12-05T13:27:45.712Z,13.50
2018-12-05T13:30:23.693Z,13.50
2018-12-05T13:32:57.061Z,13.50
2018-12-05T13:35:30.981Z,13.50
2018-12-05T13:38:04.332Z,13.60
2018-12-05T13:40:38.205Z,13.70
2018-12-05T13:43:12.301Z,13.90
2018-12-05T13:45:46.446Z,13.90
2018-12-05T13:48:20.351Z,13.90
2018-12-05T13:50:56.441Z,13.80
2018-12-05T13:53:29.748Z,13.70
2018-12-05T13:56:03.778Z,13.50
2018-12-05T13:58:38.028Z,13.30
2018-12-05T14:01:11.981Z,13.20
2018-12-05T14:03:45.965Z,13.20
2018-12-05T14:06:20.062Z,13.10
2018-12-05T14:08:54.237Z,13.00
2018-12-05T14:11:28.133Z,12.90
2018-12-05T14:14:02.323Z,12.80
2018-12-05T14:16:36.093Z,12.70
2018-12-05T14:19:10.158Z,12.60
2018-12-05T14:21:47.964Z,12.60
2018-12-05T14:24:21.224Z,12.50
2018-12-05T14:32:03.429Z,12.10
2018-12-05T14:34:36.754Z,12.00
2018-12-05T14:37:14.767Z,12.00
2018-12-05T14:39:48.712Z,11.80
2018-12-05T14:42:21.948Z,11.70
2018-12-05T14:44:59.316Z,11.60
2018-12-05T14:47:32.692Z,11.40
2018-12-05T14:50:06.683Z,11.30
2018-12-05T14:52:40.825Z,11.20
2018-12-05T14:55:14.858Z,11.10
2018-12-05T14:57:48.870Z,11.00
2018-12-05T15:00:22.849Z,10.80
2018-12-05T15:02:56.867Z,10.70
2018-12-05T15:05:30.195Z,10.60
2018-12-05T15:08:04.172Z,10.60
2018-12-05T15:10:38.239Z,10.50
2018-12-05T15:13:12.366Z,10.40
2018-12-05T15:15:46.285Z,10.30
2018-12-05T15:18:20.425Z,10.20
2018-12-05T15:20:54.526Z,10.20
2018-12-05T15:23:28.032Z,10.00
2018-12-05T15:26:02.212Z,10.00
2018-12-05T15:28:36.145Z,9.90
2018-12-05T15:31:09.654Z,9.80
2018-12-05T15:33:43.429Z,9.70
2018-12-05T15:36:17.510Z,9.60
2018-12-05T15:38:55.320Z,9.60
2018-12-05T15:41:29.497Z,9.50
2018-12-05T15:44:03.563Z,9.50
2018-12-05T15:46:36.783Z,9.40
2018-12-05T15:49:14.785Z,9.30
2018-12-05T15:51:50.893Z,9.20
2018-12-05T15:54:24.809Z,9.20
2018-12-05T15:56:58.639Z,9.20
2018-12-05T15:59:34.173Z,9.10
2018-12-05T16:02:05.449Z,9.10
2018-12-05T16:04:38.867Z,9.10
2018-12-05T16:07:12.910Z,9.20
2018-12-05T16:09:54.667Z,9.20
2018-12-05T16:12:28.721Z,9.20
2018-12-05T16:15:02.705Z,9.20
2018-12-05T16:17:39.800Z,9.20
2018-12-05T16:20:13.073Z,9.20
2018-12-05T16:22:49.715Z,9.20
2018-12-05T16:25:22.916Z,9.10
2018-12-05T16:27:57.047Z,9.10
2018-12-05T16:30:30.972Z,9.10
2018-12-05T16:33:04.877Z,9.10
2018-12-05T16:35:38.687Z,9.10
2018-12-05T16:38:12.407Z,9.10
2018-12-05T16:43:39.972Z,9.10
2018-12-05T16:46:17.989Z,9.00
2018-12-05T16:48:52.086Z,9.10
2018-12-05T16:51:25.514Z,9.10
2018-12-05T16:53:59.458Z,9.20
2018-12-05T16:56:33.585Z,9.10
2018-12-05T16:59:07.677Z,9.20
2018-12-05T17:01:40.900Z,9.10
2018-12-05T17:04:14.724Z,9.10
2018-12-05T17:09:41.511Z,9.00
2018-12-05T17:12:15.617Z,8.90
2018-12-05T17:14:49.711Z,8.80
2018-12-05T17:17:23.686Z,8.70
2018-12-05T17:19:57.588Z,8.60
2018-12-05T17:22:31.726Z,8.50
2018-12-05T17:25:05.812Z,8.50
2018-12-05T17:27:39.725Z,8.50
2018-12-05T17:30:13.680Z,8.40
2018-12-05T17:32:58.401Z,8.30
2018-12-05T17:35:32.327Z,8.30
2018-12-05T17:38:05.649Z,8.20
2018-12-05T17:40:39.590Z,8.10
2018-12-05T17:43:13.629Z,8.00
2018-12-05T17:45:47.563Z,7.90
2018-12-05T17:48:21.698Z,7.80
2018-12-05T17:50:59.597Z,7.80
2018-12-05T17:53:30.825Z,7.80
2018-12-05T17:56:04.767Z,7.80
2018-12-05T17:58:38.060Z,7.70
2018-12-05T18:01:11.992Z,7.60
2018-12-05T18:03:49.877Z,7.70
2018-12-05T18:06:23.216Z,7.70
2018-12-05T18:08:59.295Z,7.70
2018-12-05T18:11:32.525Z,7.70
2018-12-05T18:14:06.556Z,7.60
2018-12-05T18:16:40.506Z,7.60
2018-12-05T18:19:14.354Z,7.50
2018-12-05T18:21:48.268Z,7.60
2018-12-05T18:24:26.084Z,7.60
2018-12-05T18:27:02.093Z,7.60
2018-12-05T18:29:36.143Z,7.60
2018-12-05T18:32:10.004Z,7.60
2018-12-05T18:34:44.080Z,7.60
2018-12-05T18:39:52.057Z,7.50
2018-12-05T18:42:26.155Z,7.50
2018-12-05T18:45:00.077Z,7.50
2018-12-05T18:47:34.197Z,7.50
2018-12-05T18:50:08.287Z,7.50
2018-12-05T18:52:42.169Z,7.50
2018-12-05T18:55:19.902Z,7.60
2018-12-05T18:57:57.852Z,7.60
2018-12-05T19:00:33.850Z,7.70
2018-12-05T19:03:07.677Z,7.70
2018-12-05T19:05:44.864Z,7.80
2018-12-05T19:08:18.080Z,7.80
2018-12-05T19:10:52.163Z,7.80
2018-12-05T19:13:26.098Z,7.80
2018-12-05T19:15:59.318Z,7.80
2018-12-05T19:18:33.216Z,7.80
2018-12-05T19:21:06.457Z,7.80
2018-12-05T19:23:40.598Z,7.80
2018-12-05T19:26:18.356Z,7.70
2018-12-05T19:28:52.493Z,7.70
2018-12-05T19:31:26.347Z,7.70
2018-12-05T19:34:00.090Z,7.70
2018-12-05T19:36:34.092Z,7.70
2018-12-05T19:41:39.090Z,7.70
2018-12-05T19:44:12.973Z,7.80
2018-12-05T19:46:47.380Z,7.80
2018-12-05T19:49:21.210Z,7.80
2018-12-05T19:51:55.060Z,7.80
2018-12-05T19:54:29.237Z,7.70
2018-12-05T19:57:00.448Z,7.70
2018-12-05T19:59:34.157Z,7.60
2018-12-05T20:02:08.176Z,7.60
2018-12-05T20:04:42.210Z,7.60
2018-12-05T20:07:20.096Z,7.60
2018-12-05T20:09:54.106Z,7.60
2018-12-05T20:12:28.249Z,7.50
2018-12-05T20:15:02.207Z,7.50
2018-12-05T20:17:40.178Z,7.50
2018-12-05T20:20:14.038Z,7.60
2018-12-05T20:22:48.094Z,7.60
2018-12-05T20:25:22.197Z,7.50
2018-12-05T20:27:56.141Z,7.50
2018-12-05T20:30:30.121Z,7.60
2018-12-05T20:33:04.189Z,7.50
2018-12-05T20:35:41.986Z,7.50
2018-12-05T20:38:16.013Z,7.50
2018-12-05T20:43:23.888Z,7.50
2018-12-05T20:46:01.827Z,7.50
2018-12-05T20:48:35.981Z,7.40
2018-12-05T20:51:09.882Z,7.30
2018-12-05T20:53:45.968Z,7.20
2018-12-05T20:56:23.159Z,7.20
2018-12-05T20:58:57.185Z,7.10
2018-12-05T21:01:31.193Z,7.10
2018-12-05T21:04:05.116Z,7.10
2018-12-05T21:06:39.136Z,7.00
2018-12-05T21:09:13.061Z,6.90
2018-12-05T21:11:47.118Z,6.90
2018-12-05T21:14:21.256Z,6.90
2018-12-05T21:16:55.009Z,6.90
2018-12-05T21:19:28.941Z,6.80
2018-12-05T21:22:02.983Z,6.80
2018-12-05T21:24:37.087Z,6.80
2018-12-05T21:27:26.013Z,6.80
2018-12-05T21:30:04.529Z,6.80
2018-12-05T21:32:41.715Z,6.80
2018-12-05T21:35:15.657Z,6.80
2018-12-05T21:37:49.805Z,6.80
2018-12-05T21:40:27.637Z,6.80
2018-12-05T21:43:00.906Z,6.70
2018-12-05T21:45:35.001Z,6.70
2018-12-05T21:48:12.976Z,6.70
2018-12-05T21:50:47.063Z,6.70
2018-12-05T21:53:21.017Z,6.70
2018-12-05T21:55:54.308Z,6.80
2018-12-05T21:58:28.266Z,6.80
2018-12-05T22:01:02.160Z,6.80
2018-12-05T22:03:35.505Z,6.70
2018-12-05T22:06:09.515Z,6.70
2018-12-05T22:08:42.773Z,6.70
2018-12-05T22:11:16.878Z,6.80
2018-12-05T22:13:50.097Z,6.80
2018-12-05T22:16:24.244Z,6.80
2018-12-05T22:18:58.291Z,6.80
2018-12-05T22:21:32.342Z,6.80
2018-12-05T22:24:06.322Z,6.80
2018-12-05T22:26:40.264Z,6.80
2018-12-05T22:29:14.401Z,6.80
2018-12-05T22:31:48.342Z,6.70
2018-12-05T22:34:22.324Z,6.70
2018-12-05T22:36:56.285Z,6.60
2018-12-05T22:39:30.414Z,6.60
2018-12-05T22:42:04.396Z,6.70
2018-12-05T22:44:37.617Z,6.70
2018-12-05T22:47:11.532Z,6.70
2018-12-05T22:49:49.568Z,6.70
2018-12-05T22:52:27.430Z,6.70
2018-12-05T22:55:00.689Z,6.60
2018-12-05T22:57:34.517Z,6.60
2018-12-05T23:00:11.013Z,6.60
2018-12-05T23:02:44.427Z,6.60
2018-12-05T23:05:18.220Z,6.60
2018-12-05T23:07:52.273Z,6.70
2018-12-05T23:10:26.287Z,6.70
2018-12-05T23:13:00.193Z,6.70
2018-12-05T23:15:34.036Z,6.70
2018-12-05T23:18:07.959Z,6.70
2018-12-05T23:20:41.881Z,6.60
2018-12-05T23:23:19.753Z,6.60
2018-12-05T23:25:56.840Z,6.60
2018-12-05T23:28:30.168Z,6.60
2018-12-05T23:31:04.197Z,6.60
2018-12-05T23:33:38.253Z,6.60
2018-12-05T23:36:12.186Z,6.60
2018-12-05T23:38:46.127Z,6.60
2018-12-05T23:41:20.170Z,6.70
2018-12-05T23:43:53.408Z,6.60
2018-12-05T23:46:26.705Z,6.60
2018-12-05T23:49:04.650Z,6.60
2018-12-05T23:51:38.711Z,6.70
2018-12-05T23:54:12.836Z,6.70
2018-12-05T23:56:46.108Z,6.70
2018-12-05T23:59:19.456Z,6.70
